Time;durP1;ratioP1;P1;durP2;ratioP2;P2;SDS_P1;SDS_P2;PMS_P1;PMS_P2;Temp;Humidity;BMP_temperature;BMP_pressure;BME280_temperature;BME280_humidity;BME280_pressure;Samples;Min_cycle;Max_cycle;Signal;HPM_P1;HPM_P2
2021/12/07 05:46:15;;;;;;;3.00;2.50;;;;;;;4.27;82.05;93020.94;832828;71;32684;-75
2021/12/07 06:01:08;;;;;;;3.05;2.47;;;;;;;4.18;81.99;93015.10;827415;71;29564;-76
2021/12/07 06:16:09;;;;;;;2.77;2.58;;;;;;;4.14;82.49;93027.11;827038;71;30782;-75
2021/12/07 06:31:08;;;;;;;5.83;3.70;;;;;;;4.16;82.61;93017.20;827745;71;29636;-77
2021/12/07 06:46:15;;;;;;;3.42;3.10;;;;;;;4.11;82.55;93018.58;826469;71;33491;-76
2021/12/07 07:01:11;;;;;;;5.60;3.47;;;;;;;4.05;82.17;93024.90;833532;71;29624;-74
2021/12/07 07:16:09;;;;;;;3.80;3.27;;;;;;;3.95;81.96;93025.84;828477;71;30555;-76
2021/12/07 07:31:11;;;;;;;3.45;3.10;;;;;;;3.89;82.33;93029.54;827517;71;30326;-77
2021/12/07 07:46:09;;;;;;;4.00;3.60;;;;;;;3.86;82.08;93029.35;827504;71;30265;-78
2021/12/07 08:01:13;;;;;;;4.58;3.12;;;;;;;3.78;82.02;93024.27;827148;71;33123;-74
2021/12/07 08:16:20;;;;;;;7.87;4.08;;;;;;;3.71;82.32;93033.70;820296;71;33365;-75
2021/12/07 08:31:13;;;;;;;3.58;3.30;;;;;;;3.55;82.11;93025.89;821974;71;31893;-76
2021/12/07 08:46:15;;;;;;;4.30;3.62;;;;;;;3.67;82.46;93044.90;833332;71;32482;-75
2021/12/07 09:01:08;;;;;;;4.08;3.60;;;;;;;3.74;81.85;93069.98;818686;71;29749;-76
2021/12/07 09:16:11;;;;;;;3.22;2.70;;;;;;;3.65;81.76;93067.24;819560;71;30425;-76
2021/12/07 09:31:16;;;;;;;3.72;3.35;;;;;;;3.65;81.98;93057.37;828929;71;31682;-77
2021/12/07 09:46:15;;;;;;;3.55;2.92;;;;;;;3.78;81.52;93045.78;829774;71;32711;-78
2021/12/07 10:01:31;;;;;;;4.33;3.92;;;;;;;3.93;80.93;93046.08;835287;71;32712;-78
2021/12/07 10:16:16;;;;;;;3.52;3.30;;;;;;;4.09;80.72;93038.09;826735;71;32983;-78
2021/12/07 10:31:22;;;;;;;3.75;3.45;;;;;;;4.18;79.62;93019.00;826674;71;31832;-75
2021/12/07 10:46:29;;;;;;;3.42;2.92;;;;;;;4.34;78.90;93018.22;827619;71;28657;-78
2021/12/07 11:01:09;;;;;;;3.95;3.65;;;;;;;4.34;78.62;93014.33;818911;71;29445;-77
2021/12/07 11:02:18;;;;;;;3.98;3.67;;;;;;;4.32;78.74;93016.95;806621;73;25745;-77
2021/12/07 11:03:29;;;;;;;3.65;3.45;;;;;;;4.34;78.95;93011.73;807774;73;25315;-77
2021/12/07 11:04:34;;;;;;;4.05;3.75;;;;;;;4.44;78.94;93016.00;807253;73;25246;-77
2021/12/07 11:05:44;;;;;;;3.98;3.58;;;;;;;4.55;78.75;93004.89;806537;73;25230;-78
2021/12/07 11:07:07;;;;;;;4.40;3.92;;;;;;;4.68;78.58;93002.83;806501;73;25311;-76
2021/12/07 11:08:12;;;;;;;4.87;3.90;;;;;;;4.81;78.18;93001.31;806666;73;25261;-76
2021/12/07 11:09:16;;;;;;;4.55;4.15;;;;;;;4.94;77.71;93002.37;806432;73;25293;-76
2021/12/07 11:10:28;;;;;;;4.45;3.60;;;;;;;5.03;77.45;92999.34;806527;73;25558;-75
2021/12/07 11:11:28;;;;;;;4.60;4.20;;;;;;;5.11;77.25;92999.97;805769;73;25316;-77
2021/12/07 11:12:39;;;;;;;4.40;4.00;;;;;;;5.18;76.98;92999.03;806457;73;26106;-77
2021/12/07 11:13:43;;;;;;;4.47;4.10;;;;;;;5.25;76.57;92999.96;806554;73;25305;-77
2021/12/07 11:14:52;;;;;;;4.50;3.50;;;;;;;5.31;76.27;92992.80;804166;73;25257;-76
2021/12/07 11:16:05;;;;;;;4.10;3.80;;;;;;;5.36;75.85;92990.11;806409;73;25250;-75
2021/12/07 11:17:09;;;;;;;4.12;3.80;;;;;;;5.39;75.69;92990.30;806508;73;25281;-76
2021/12/07 11:18:13;;;;;;;6.42;3.95;;;;;;;5.44;75.46;92986.82;806566;73;25677;-77
2021/12/07 11:19:23;;;;;;;3.80;3.40;;;;;;;5.47;75.26;92991.42;806378;73;25751;-78
2021/12/07 11:20:28;;;;;;;4.00;3.60;;;;;;;5.50;75.14;92988.25;806560;73;25555;-75
2021/12/07 11:21:33;;;;;;;4.33;3.92;;;;;;;5.55;74.86;92986.83;806250;73;25232;-74
2021/12/07 11:22:40;;;;;;;4.25;3.90;;;;;;;5.60;74.63;92988.57;806262;73;25296;-77
2021/12/07 11:23:47;;;;;;;5.25;4.72;;;;;;;5.62;74.51;92991.11;806617;73;25227;-75
2021/12/07 11:24:52;;;;;;;4.80;4.40;;;;;;;5.65;74.27;92989.74;806384;73;25289;-78
2021/12/07 11:30:07;;;;;;;5.87;5.30;;;;;;;5.74;73.60;92999.70;791617;75;25280;-76
2021/12/07 11:31:28;;;;;;;5.20;4.80;;;;;;;5.76;73.65;93005.92;789921;75;25326;-78
2021/12/07 11:32:32;;;;;;;4.72;4.33;;;;;;;5.76;73.50;93002.78;791672;75;25258;-76
2021/12/07 11:33:37;;;;;;;4.33;3.85;;;;;;;5.77;73.05;93006.91;791870;75;25392;-75
2021/12/07 11:34:43;;;;;;;4.15;3.92;;;;;;;5.78;73.02;93004.56;791350;75;26010;-77
2021/12/07 11:35:46;;;;;;;4.15;3.75;;;;;;;5.80;72.94;93004.27;791694;75;25756;-77
2021/12/07 11:36:58;;;;;;;5.15;4.08;;;;;;;5.82;73.01;93003.45;791721;75;25695;-77
2021/12/07 11:38:05;;;;;;;3.72;3.45;;;;;;;5.83;72.86;92997.92;791650;75;25774;-76
2021/12/07 11:39:27;;;;;;;4.25;3.95;;;;;;;5.87;72.69;92999.95;791631;75;25333;-76
2021/12/07 11:40:36;;;;;;;4.00;3.60;;;;;;;5.89;72.23;92997.83;792499;75;25256;-76
2021/12/07 11:41:40;;;;;;;4.15;3.45;;;;;;;5.89;72.08;92998.59;790924;75;25323;-76
2021/12/07 11:42:44;;;;;;;3.60;3.30;;;;;;;5.90;71.83;92994.94;793296;75;25265;-77
2021/12/07 11:43:56;;;;;;;3.47;3.27;;;;;;;5.91;71.79;92989.95;793681;75;25268;-79
2021/12/07 11:45:03;;;;;;;3.45;3.15;;;;;;;5.93;71.69;92990.97;793529;75;25323;-80
2021/12/07 11:46:10;;;;;;;3.92;3.52;;;;;;;5.93;71.67;92987.82;793618;75;25245;-78
2021/12/07 11:47:13;;;;;;;3.10;2.90;;;;;;;5.95;71.44;92990.93;791720;75;25256;-79
2021/12/07 11:48:17;;;;;;;4.33;3.85;;;;;;;5.96;71.36;92996.38;793449;75;25354;-78
2021/12/07 11:49:24;;;;;;;4.47;4.08;;;;;;;5.98;71.34;92992.16;793493;75;25582;-77
2021/12/07 11:50:31;;;;;;;3.40;3.20;;;;;;;6.00;71.30;93001.75;793299;74;25303;-77
2021/12/07 11:51:35;;;;;;;4.00;3.55;;;;;;;5.99;71.23;93004.89;792737;75;25209;-77
2021/12/07 11:52:39;;;;;;;3.90;3.60;;;;;;;6.00;71.15;93010.35;793201;75;25256;-79
2021/12/07 11:53:43;;;;;;;3.58;3.20;;;;;;;6.02;71.19;93011.34;793403;75;25284;-79
2021/12/07 11:54:47;;;;;;;3.95;3.65;;;;;;;6.04;71.23;93017.02;793061;75;25259;-79
2021/12/07 11:55:54;;;;;;;4.22;3.80;;;;;;;6.06;71.27;93011.52;793190;75;25296;-77
2021/12/07 11:56:59;;;;;;;4.30;3.90;;;;;;;6.08;71.27;93002.88;792719;75;25312;-77
2021/12/07 11:58:05;;;;;;;5.85;3.87;;;;;;;6.07;71.20;92995.61;791678;75;25450;-77
2021/12/07 11:59:09;;;;;;;4.90;4.17;;;;;;;6.08;71.13;92994.53;789995;75;25245;-76
2021/12/07 12:00:18;;;;;;;3.85;3.45;;;;;;;5.74;71.25;92933.34;791091;75;25355;-77
2021/12/07 12:01:22;;;;;;;4.10;3.80;;;;;;;6.11;71.13;92984.84;792416;75;25242;-76
2021/12/07 12:02:25;;;;;;;4.15;3.55;;;;;;;6.12;70.75;92986.91;793756;74;26010;-77
2021/12/07 12:03:30;;;;;;;3.87;3.58;;;;;;;6.11;70.57;92990.59;793410;74;25307;-77
2021/12/07 12:04:34;;;;;;;3.40;3.10;;;;;;;6.11;70.23;92993.95;792916;74;25691;-78
2021/12/07 12:05:40;;;;;;;3.62;3.12;;;;;;;6.11;70.01;92987.98;793370;74;25710;-77
2021/12/07 12:06:47;;;;;;;3.10;2.80;;;;;;;6.00;69.94;92983.02;793391;74;25311;-78
2021/12/07 12:07:51;;;;;;;3.05;2.83;;;;;;;6.09;69.76;92997.38;792996;74;25244;-77
2021/12/07 12:08:55;;;;;;;3.50;3.20;;;;;;;6.08;69.55;93000.28;793052;74;26383;-76
2021/12/07 12:09:59;;;;;;;3.45;3.15;;;;;;;6.07;69.43;92998.75;792929;74;25257;-76
2021/12/07 12:11:06;;;;;;;5.12;3.25;;;;;;;6.07;69.56;92991.70;793235;74;25275;-76
2021/12/07 12:12:14;;;;;;;3.77;3.45;;;;;;;6.05;69.60;92995.14;792172;74;25944;-75
2021/12/07 12:13:39;;;;;;;3.80;3.27;;;;;;;6.06;69.42;92994.59;792984;74;25349;-77
2021/12/07 12:14:44;;;;;;;3.85;3.55;;;;;;;6.05;69.31;92993.08;792252;74;25261;-78
2021/12/07 12:16:07;;;;;;;3.80;3.40;;;;;;;6.05;69.27;92996.44;792204;74;25299;-78
2021/12/07 12:17:19;;;;;;;3.72;3.30;;;;;;;6.06;69.30;92994.59;793106;74;26027;-77
2021/12/07 12:18:41;;;;;;;4.33;3.50;;;;;;;6.03;69.32;92996.50;792280;74;25300;-77
2021/12/07 12:20:07;;;;;;;4.08;3.67;;;;;;;6.03;69.44;92991.30;792512;74;25261;-76
2021/12/07 12:21:20;;;;;;;3.52;3.22;;;;;;;6.00;69.33;92989.52;792900;74;25366;-77
2021/12/07 12:22:29;;;;;;;3.22;3.00;;;;;;;5.97;69.30;92992.70;749159;79;25638;-76
2021/12/07 12:24:09;;;;;;;3.80;3.25;;;;;;;5.95;69.40;92992.23;775576;74;25297;-76
2021/12/07 12:25:16;;;;;;;3.45;2.95;;;;;;;5.96;69.54;92999.50;792971;74;25476;-75
2021/12/07 12:26:22;;;;;;;3.45;3.20;;;;;;;5.92;69.54;92992.80;792941;74;25233;-79
2021/12/07 12:27:33;;;;;;;3.70;3.40;;;;;;;5.91;69.60;92991.25;793307;74;25225;-76
2021/12/07 12:28:40;;;;;;;4.00;3.70;;;;;;;5.92;69.69;92993.31;796418;74;25263;-78
2021/12/07 12:29:46;;;;;;;4.05;3.60;;;;;;;5.92;69.83;92990.20;796268;74;25363;-77
2021/12/07 12:30:50;;;;;;;4.08;3.70;;;;;;;5.94;69.79;92985.98;796253;74;25406;-78
2021/12/07 12:31:56;;;;;;;3.55;3.30;;;;;;;5.92;70.01;92979.79;796210;74;25252;-78
2021/12/07 12:33:03;;;;;;;3.65;3.35;;;;;;;5.95;69.99;92980.52;796345;74;25254;-78
2021/12/07 12:34:15;;;;;;;3.65;3.30;;;;;;;5.96;69.73;92980.77;796626;74;25327;-77
2021/12/07 12:35:20;;;;;;;3.40;3.10;;;;;;;5.90;69.68;92977.23;796607;74;25309;-78
2021/12/07 12:36:28;;;;;;;3.90;3.60;;;;;;;5.95;69.63;92978.45;796346;74;25323;-77
2021/12/07 12:37:33;;;;;;;3.60;3.30;;;;;;;5.94;69.60;92979.47;796034;74;25332;-77
2021/12/07 12:38:37;;;;;;;3.90;3.60;;;;;;;5.94;69.62;92978.97;796151;74;25261;-78
2021/12/07 12:39:53;;;;;;;4.10;3.70;;;;;;;5.96;69.83;92982.58;796401;74;25247;-78
2021/12/07 12:40:59;;;;;;;4.12;3.83;;;;;;;5.97;69.50;92983.59;796139;74;25499;-76
2021/12/07 12:42:03;;;;;;;3.87;3.58;;;;;;;5.96;69.63;92988.58;793849;74;25712;-76
2021/12/07 12:43:06;;;;;;;4.40;4.00;;;;;;;5.97;69.77;92988.03;796158;74;26026;-77
2021/12/07 12:44:15;;;;;;;4.28;3.92;;;;;;;5.97;69.75;92986.73;796607;74;25252;-77
2021/12/07 12:45:21;;;;;;;4.00;3.60;;;;;;;5.95;69.74;92990.93;796510;74;25458;-76
2021/12/07 12:46:31;;;;;;;3.80;3.50;;;;;;;5.95;69.80;92989.63;796875;74;25274;-78
2021/12/07 12:47:36;;;;;;;4.47;3.98;;;;;;;5.95;69.85;92994.83;797028;74;25277;-76
2021/12/07 12:48:49;;;;;;;4.25;3.85;;;;;;;5.97;69.89;92998.45;797056;74;25242;-75
2021/12/07 12:49:52;;;;;;;4.50;4.10;;;;;;;5.96;69.88;92998.98;797287;74;25270;-78
2021/12/07 12:50:57;;;;;;;4.25;3.90;;;;;;;5.94;69.87;92993.79;808525;73;25313;-78
2021/12/07 12:52:01;;;;;;;3.95;3.65;;;;;;;5.96;69.79;93001.59;809566;73;25380;-77
2021/12/07 12:53:14;;;;;;;4.10;3.80;;;;;;;5.95;69.57;93003.95;808842;73;25276;-76
2021/12/07 12:54:19;;;;;;;3.87;3.60;;;;;;;5.94;69.29;92993.79;800751;73;25374;-79
2021/12/07 12:55:35;;;;;;;4.25;3.85;;;;;;;5.93;69.23;92997.47;808124;73;25263;-77
2021/12/07 12:56:39;;;;;;;5.10;4.22;;;;;;;5.90;69.21;92998.84;807484;73;25266;-77
2021/12/07 12:57:52;;;;;;;4.35;3.98;;;;;;;5.89;69.05;93002.49;808399;73;25522;-77
2021/12/07 12:58:59;;;;;;;4.42;4.05;;;;;;;5.86;69.08;92995.29;807375;73;26074;-78
2021/12/07 13:00:03;;;;;;;4.08;3.77;;;;;;;5.85;69.07;93000.78;808044;73;25418;-77
2021/12/07 13:01:20;;;;;;;4.20;3.80;;;;;;;5.83;69.07;93000.53;803045;73;25242;-77
2021/12/07 13:02:27;;;;;;;3.92;3.62;;;;;;;5.81;69.12;93005.26;808155;73;25298;-76
2021/12/07 13:03:57;;;;;;;4.08;3.75;;;;;;;5.81;69.23;93003.20;806881;73;25711;-80
2021/12/07 13:05:06;;;;;;;5.00;3.55;;;;;;;5.80;69.40;93008.17;808402;73;25299;-80
2021/12/07 13:06:12;;;;;;;3.90;3.58;;;;;;;5.78;69.58;93005.86;808383;73;25555;-81
2021/12/07 13:07:28;;;;;;;3.75;3.47;;;;;;;5.77;69.73;93011.35;806299;73;25530;-78
2021/12/07 13:08:31;;;;;;;4.08;3.77;;;;;;;5.77;69.75;93003.01;806129;73;25298;-77
2021/12/07 13:09:41;;;;;;;3.67;3.37;;;;;;;5.77;69.61;93003.55;806289;73;25311;-76
2021/12/07 13:11:05;;;;;;;4.55;4.15;;;;;;;5.76;69.61;93002.02;806144;73;25281;-77
2021/12/07 13:12:20;;;;;;;4.35;4.05;;;;;;;5.76;69.38;93014.50;806434;73;25259;-76
2021/12/07 13:13:26;;;;;;;4.35;3.95;;;;;;;5.75;69.46;93014.78;806272;73;25230;-75
2021/12/07 13:14:33;;;;;;;5.05;4.47;;;;;;;5.72;69.43;93018.75;802615;73;26125;-76
2021/12/07 13:15:36;;;;;;;4.22;3.92;;;;;;;5.72;69.50;93012.78;806157;73;25371;-76
2021/12/07 13:16:49;;;;;;;4.40;4.00;;;;;;;5.71;69.50;93014.59;806204;73;25990;-75
2021/12/07 13:17:54;;;;;;;4.10;3.70;;;;;;;5.70;69.26;93012.30;805871;73;25246;-78
2021/12/07 13:19:03;;;;;;;4.28;3.90;;;;;;;5.66;69.37;93011.32;805338;73;25348;-75
2021/12/07 13:20:24;;;;;;;4.20;3.90;;;;;;;5.68;69.21;93010.50;806134;73;25285;-75
2021/12/07 13:21:30;;;;;;;3.90;3.50;;;;;;;5.64;69.12;93010.34;805572;73;25508;-77
2021/12/07 13:22:48;;;;;;;3.90;3.60;;;;;;;5.62;68.69;93011.16;805709;73;25276;-76
2021/12/07 13:24:03;;;;;;;3.58;3.27;;;;;;;5.58;68.71;93008.91;805279;73;25650;-76
2021/12/07 13:25:12;;;;;;;4.12;3.83;;;;;;;5.55;68.80;93013.38;805610;73;26151;-75
2021/12/07 13:26:18;;;;;;;3.67;3.47;;;;;;;5.54;68.79;93012.62;806288;73;25278;-74
2021/12/07 13:27:22;;;;;;;4.08;3.77;;;;;;;5.53;69.00;93007.70;806191;73;25348;-76
2021/12/07 13:28:35;;;;;;;3.58;3.37;;;;;;;5.52;68.92;93012.14;792196;75;25296;-79
2021/12/07 13:29:46;;;;;;;3.80;3.50;;;;;;;5.49;68.81;93017.91;792266;74;25294;-78
2021/12/07 13:30:53;;;;;;;3.60;3.30;;;;;;;5.50;68.80;93022.61;792079;75;25658;-75
2021/12/07 13:32:00;;;;;;;4.95;3.70;;;;;;;5.48;69.09;93021.59;792406;75;25266;-74
2021/12/07 13:33:15;;;;;;;4.20;3.50;;;;;;;5.50;69.16;93017.41;792377;75;25879;-76
2021/12/07 13:34:31;;;;;;;5.17;4.10;;;;;;;5.49;69.21;93025.72;791753;75;25291;-80
2021/12/07 13:35:35;;;;;;;3.47;3.25;;;;;;;5.50;69.19;93026.50;790440;75;25308;-76
2021/12/07 13:36:47;;;;;;;4.17;3.87;;;;;;;5.48;68.84;93028.63;791903;74;25865;-75
2021/12/07 13:37:51;;;;;;;3.90;3.60;;;;;;;5.47;68.41;93018.73;791834;75;25288;-76
2021/12/07 13:38:56;;;;;;;3.85;3.47;;;;;;;5.46;68.48;93026.85;792195;73;26011;-77
2021/12/07 13:40:01;;;;;;;3.50;3.20;;;;;;;5.44;68.37;93023.23;791896;75;25318;-79
2021/12/07 13:41:14;;;;;;;3.83;3.45;;;;;;;5.43;68.38;93022.98;792225;75;25730;-77
2021/12/07 13:42:21;;;;;;;3.37;3.05;;;;;;;5.42;68.52;93027.95;786036;75;25906;-76
2021/12/07 13:43:36;;;;;;;3.27;3.08;;;;;;;5.42;68.57;93025.36;792041;75;25701;-76
2021/12/07 13:44:49;;;;;;;3.80;3.50;;;;;;;5.41;68.65;93027.70;791943;75;25284;-76
2021/12/07 13:45:52;;;;;;;4.97;4.10;;;;;;;5.39;68.78;93031.12;791778;74;25269;-75
2021/12/07 13:46:59;;;;;;;4.25;3.85;;;;;;;5.36;68.83;93028.58;792332;74;25252;-77
2021/12/07 13:48:04;;;;;;;3.72;3.42;;;;;;;5.35;68.81;93027.56;792497;75;25252;-77
2021/12/07 13:49:10;;;;;;;5.58;4.20;;;;;;;5.35;68.79;93028.36;792032;75;25800;-75
2021/12/07 13:50:16;;;;;;;4.10;3.70;;;;;;;5.35;68.81;93031.47;792096;74;25540;-75
2021/12/07 13:51:22;;;;;;;3.80;3.50;;;;;;;5.35;68.74;93037.46;792247;74;25252;-77
2021/12/07 13:52:28;;;;;;;3.33;3.12;;;;;;;5.34;68.68;93033.31;791899;74;25288;-74
2021/12/07 13:53:32;;;;;;;3.47;3.17;;;;;;;5.33;68.57;93037.48;791786;74;25959;-76
2021/12/07 13:54:42;;;;;;;4.58;3.20;;;;;;;5.34;68.47;93036.45;792054;75;25241;-76
2021/12/07 13:55:46;;;;;;;3.62;3.33;;;;;;;5.33;68.45;93041.39;791675;74;25682;-75
2021/12/07 13:56:53;;;;;;;4.08;3.77;;;;;;;5.32;68.58;93038.56;791220;75;26016;-79
2021/12/07 13:57:59;;;;;;;4.05;3.65;;;;;;;5.29;68.61;93045.13;791944;74;25276;-76
2021/12/07 13:59:06;;;;;;;3.77;3.47;;;;;;;5.31;68.68;93045.61;792244;74;25266;-76
2021/12/07 14:00:18;;;;;;;3.80;3.35;;;;;;;5.31;68.82;93048.71;791421;74;25299;-75
2021/12/07 14:01:24;;;;;;;4.05;3.75;;;;;;;5.30;68.83;93045.35;792307;74;25315;-77
2021/12/07 14:02:28;;;;;;;4.30;3.80;;;;;;;5.30;68.59;93047.19;791389;75;25401;-76
2021/12/07 14:03:32;;;;;;;3.52;3.22;;;;;;;5.27;68.66;93042.55;811705;73;25269;-75
2021/12/07 14:04:36;;;;;;;4.10;3.80;;;;;;;5.20;68.73;93041.11;792647;74;25574;-76
2021/12/07 14:05:42;;;;;;;5.03;3.90;;;;;;;5.26;68.74;93050.89;785059;75;25305;-75
2021/12/07 14:06:50;;;;;;;4.15;3.75;;;;;;;5.26;68.89;93049.59;776798;76;25844;-76
2021/12/07 14:07:56;;;;;;;3.80;3.50;;;;;;;5.25;68.82;93050.66;770950;77;25395;-75
2021/12/07 14:09:09;;;;;;;3.58;3.37;;;;;;;5.24;68.71;93048.34;771015;77;25467;-76
2021/12/07 14:10:18;;;;;;;4.85;3.60;;;;;;;5.21;68.71;93050.47;770839;77;25528;-76
2021/12/07 14:11:22;;;;;;;4.55;4.15;;;;;;;5.20;68.71;93055.95;765907;77;25638;-75
2021/12/07 14:12:26;;;;;;;4.33;3.98;;;;;;;5.18;68.61;93059.37;765518;77;25281;-78
2021/12/07 14:13:30;;;;;;;4.28;3.87;;;;;;;5.18;68.54;93058.06;765470;77;25267;-78
2021/12/07 14:14:35;;;;;;;3.83;3.52;;;;;;;5.16;68.62;93054.45;763669;77;25595;-76
2021/12/07 14:15:41;;;;;;;3.70;3.47;;;;;;;5.14;68.56;93053.20;765611;77;25514;-75
2021/12/07 14:16:45;;;;;;;4.65;4.08;;;;;;;5.11;68.60;93060.27;766142;77;25260;-76
2021/12/07 14:17:55;;;;;;;4.20;3.90;;;;;;;5.07;68.72;93058.80;765670;77;25283;-77
2021/12/07 14:18:58;;;;;;;5.03;3.90;;;;;;;5.06;68.91;93056.48;765461;77;25250;-75
2021/12/07 14:20:02;;;;;;;4.70;4.30;;;;;;;5.06;69.03;93057.78;765498;77;25343;-77
2021/12/07 14:21:07;;;;;;;4.60;4.20;;;;;;;5.07;68.99;93065.80;765511;77;25300;-76
2021/12/07 14:22:11;;;;;;;5.90;4.10;;;;;;;5.05;69.05;93062.21;765344;77;25388;-76
2021/12/07 14:23:20;;;;;;;4.53;4.00;;;;;;;5.04;69.23;93061.20;765567;77;25264;-75
2021/12/07 14:24:24;;;;;;;5.65;4.45;;;;;;;5.01;69.14;93056.81;765408;77;25292;-77
2021/12/07 14:25:28;;;;;;;4.70;4.30;;;;;;;5.02;69.09;93062.77;765537;77;25709;-76
2021/12/07 14:26:36;;;;;;;5.60;4.42;;;;;;;4.89;69.30;93049.26;765340;77;25317;-77
2021/12/07 14:27:40;;;;;;;4.28;3.83;;;;;;;4.99;69.47;93062.83;765595;77;25358;-75
2021/12/07 14:29:03;;;;;;;5.17;4.72;;;;;;;4.98;69.56;93054.77;765644;77;25460;-77
2021/12/07 14:30:09;;;;;;;5.42;4.67;;;;;;;4.98;69.75;93057.37;765612;77;25316;-77
2021/12/07 14:31:19;;;;;;;4.55;4.20;;;;;;;4.97;69.76;93061.58;765749;77;25250;-75
2021/12/07 14:32:22;;;;;;;4.60;4.20;;;;;;;4.98;69.75;93063.11;765423;77;25359;-77
2021/12/07 14:33:26;;;;;;;4.80;4.40;;;;;;;4.97;69.82;93065.48;765180;77;25323;-77
2021/12/07 14:34:32;;;;;;;4.90;4.42;;;;;;;4.96;69.84;93061.33;765390;77;25718;-78
2021/12/07 14:35:36;;;;;;;4.78;4.37;;;;;;;4.94;69.92;93068.10;765827;77;25299;-78
2021/12/07 14:36:49;;;;;;;4.00;3.75;;;;;;;4.56;69.86;93011.11;765680;77;25808;-78
2021/12/07 14:37:53;;;;;;;5.20;4.70;;;;;;;4.94;69.87;93064.74;765634;77;25529;-76
2021/12/07 14:39:00;;;;;;;4.12;3.77;;;;;;;4.93;70.07;93067.88;767500;77;25303;-77
2021/12/07 14:40:06;;;;;;;4.12;3.75;;;;;;;4.94;70.16;93065.50;767384;77;25280;-76
2021/12/07 14:41:13;;;;;;;4.95;4.00;;;;;;;4.91;70.22;93063.50;765674;77;25757;-76
2021/12/07 14:42:19;;;;;;;5.80;4.58;;;;;;;4.93;70.33;93065.81;765590;77;26025;-75
2021/12/07 14:43:23;;;;;;;4.37;4.08;;;;;;;4.91;70.35;93064.03;765410;77;25442;-77
2021/12/07 14:44:30;;;;;;;4.58;4.10;;;;;;;4.89;70.35;93069.51;765249;77;26071;-76
2021/12/07 14:45:34;;;;;;;4.10;3.80;;;;;;;4.88;70.43;93070.55;765352;77;25623;-77
2021/12/07 14:46:38;;;;;;;4.50;4.10;;;;;;;4.87;70.57;93078.66;765753;77;25311;-78
2021/12/07 14:47:42;;;;;;;4.53;4.12;;;;;;;4.88;70.57;93072.39;765496;77;25816;-76
2021/12/07 14:48:47;;;;;;;4.85;4.00;;;;;;;4.86;70.58;93062.81;765568;77;25330;-76
2021/12/07 14:49:54;;;;;;;4.97;4.50;;;;;;;4.85;70.66;93069.84;765655;77;25313;-76
2021/12/07 14:51:10;;;;;;;5.22;4.47;;;;;;;4.86;70.61;93071.91;765605;77;25366;-76
2021/12/07 14:52:17;;;;;;;5.72;4.10;;;;;;;4.85;70.53;93069.08;765454;77;25707;-76
2021/12/07 14:53:35;;;;;;;4.60;4.17;;;;;;;4.81;70.55;93068.88;765693;77;25288;-77
2021/12/07 14:54:40;;;;;;;4.35;3.95;;;;;;;4.79;70.63;93070.45;765556;77;25271;-76
2021/12/07 14:55:45;;;;;;;4.60;4.20;;;;;;;4.78;70.79;93071.49;764774;77;25768;-75
2021/12/07 14:56:50;;;;;;;4.70;4.30;;;;;;;4.78;70.89;93066.30;765098;77;25821;-76
2021/12/07 14:57:54;;;;;;;5.10;4.60;;;;;;;4.78;71.00;93076.69;765632;77;25370;-78
2021/12/07 14:59:00;;;;;;;4.40;4.00;;;;;;;4.77;71.12;93072.56;765353;77;25385;-75
2021/12/07 15:00:06;;;;;;;4.97;4.50;;;;;;;4.77;71.09;93074.40;765981;77;25307;-74
2021/12/07 15:16:11;;;;;;;5.75;5.00;;;;;;;3.60;74.00;93070.66;827640;71;28731;-77
2021/12/07 15:31:10;;;;;;;4.75;4.20;;;;;;;3.02;75.69;93072.10;832994;71;29342;-77
2021/12/07 15:46:10;;;;;;;3.98;3.67;;;;;;;2.83;76.75;93094.59;827406;71;28714;-76
2021/12/07 21:32:07;;;;;;;;;;;;;;;;;;;;;
2021/12/07 22:16:46;;;;;;;3.55;3.25;;;;;;;1.31;82.41;93286.77;860667;68;32706;-79
